Time;durP1;ratioP1;P1;durP2;ratioP2;P2;SDS_P1;SDS_P2;PMS_P1;PMS_P2;Temp;Humidity;BMP_temperature;BMP_pressure;BME280_temperature;BME280_humidity;BME280_pressure;Samples;Min_cycle;Max_cycle;Signal;HPM_P1;HPM_P2
2022/06/04 00:01:24;;;;;;;;;;;;;;;;;;5050730;28;1067;-74
2022/06/04 00:03:50;;;;;;;;;;;;;;;;;;5050586;28;1279;-75
2022/06/04 00:06:18;;;;;;;;;;;;;;;;;;5050005;28;1133;-75
2022/06/04 00:08:44;;;;;;;;;;;;;;;;;;5050451;28;1083;-75
2022/06/04 00:16:38;;;;;;;;;;;;;;;;;;5075658;28;2452;-74
2022/06/04 00:19:04;;;;;;;;;;;;;;;;;;5089291;28;1181;-75
2022/06/04 00:21:31;;;;;;;;;;;;;;;;;;5090571;28;1071;-74
2022/06/04 00:23:58;;;;;;;;;;;;;;;;;;5082536;28;1559;-74
2022/06/04 00:26:24;;;;;;;;;;;;;;;;;;5068789;28;1088;-74
2022/06/04 00:28:50;;;;;;;;;;;;;;;;;;5076892;28;948;-74
2022/06/04 00:31:17;;;;;;;;;;;;;;;;;;5086574;28;838;-75
2022/06/04 00:33:43;;;;;;;;;;;;;;;;;;5079478;28;1409;-75
2022/06/04 00:36:09;;;;;;;;;;;;;;;;;;5073539;28;1071;-74
2022/06/04 00:38:36;;;;;;;;;;;;;;;;;;5072510;28;1989;-75
2022/06/04 00:41:16;;;;;;;;;;;;;;;;;;5073914;28;1083;-75
2022/06/04 00:43:57;;;;;;;;;;;;;;;;;;5073603;28;1342;-75
2022/06/04 00:46:56;;;;;;;;;;;;;;;;;;5073209;28;1051;-75
2022/06/04 00:49:22;;;;;;;;;;;;;;;;;;5073417;28;945;-75
2022/06/04 00:51:49;;;;;;;;;;;;;;;;;;5073555;28;1087;-75
2022/06/04 00:54:17;;;;;;;;;;;;;;;;;;5073520;28;1417;-75
2022/06/04 00:56:44;;;;;;;;;;;;;;;;;;5071774;28;1459;-75
2022/06/04 00:59:17;;;;;;;;;;;;;;;;;;5053291;28;1914;-75
2022/06/04 01:01:45;;;;;;;;;;;;;;;;;;5053383;28;1068;-75
2022/06/04 01:04:47;;;;;;;;;;;;;;;;;;5052259;28;1499;-75
2022/06/04 01:07:00;;;;;;;;;;;;;;;;;;5068398;28;1646;-75
2022/06/04 01:09:34;;;;;;;;;;;;;;;;;;5071850;28;1118;-75
2022/06/04 01:12:12;;;;;;;;;;;;;;;;;;5073178;28;1423;-75
2022/06/04 01:14:42;;;;;;;;;;;;;;;;;;5073103;28;1102;-75
2022/06/04 01:17:10;;;;;;;;;;;;;;;;;;5071056;28;1954;-75
2022/06/04 01:19:52;;;;;;;;;;;;;;;;;;5073061;28;1132;-75
2022/06/04 01:22:23;;;;;;;;;;;;;;;;;;5072930;28;1422;-75
2022/06/04 01:24:58;;;;;;;;;;;;;;;;;;5071783;28;1244;-75
2022/06/04 01:27:27;;;;;;;;;;;;;;;;;;5071381;28;1266;-75
2022/06/04 01:29:55;;;;;;;;;;;;;;;;;;5072782;28;925;-75
2022/06/04 01:32:24;;;;;;;;;;;;;;;;;;5072497;28;1298;-75
2022/06/04 01:34:51;;;;;;;;;;;;;;;;;;5072814;28;724;-74
2022/06/04 01:37:19;;;;;;;;;;;;;;;;;;5072414;28;1910;-74
2022/06/04 01:42:31;;;;;;;;;;;;;;;;;;5072450;28;1314;-75
2022/06/04 01:44:58;;;;;;;;;;;;;;;;;;5072595;28;1063;-75
2022/06/04 01:47:24;;;;;;;;;;;;;;;;;;5072384;28;837;-74
2022/06/04 01:49:51;;;;;;;;;;;;;;;;;;5072719;28;1004;-75
2022/06/04 01:52:19;;;;;;;;;;;;;;;;;;5072139;28;1372;-74
2022/06/04 01:54:49;;;;;;;;;;;;;;;;;;5072263;28;1118;-74
2022/06/04 01:57:16;;;;;;;;;;;;;;;;;;5072377;28;1910;-73
2022/06/04 01:59:44;;;;;;;;;;;;;;;;;;5072336;28;948;-73
2022/06/04 02:02:11;;;;;;;;;;;;;;;;;;5071319;28;1332;-73
2022/06/04 02:04:38;;;;;;;;;;;;;;;;;;5070516;28;1210;-73
2022/06/04 02:09:49;;;;;;;;;;;;;;;;;;5072145;28;996;-73
2022/06/04 02:12:16;;;;;;;;;;;;;;;;;;5070764;28;1370;-74
2022/06/04 02:14:43;;;;;;;;;;;;;;;;;;5071079;28;1335;-73
2022/06/04 02:17:13;;;;;;;;;;;;;;;;;;5072412;28;1110;-73
2022/06/04 02:19:39;;;;;;;;;;;;;;;;;;5072717;28;989;-74
2022/06/04 02:22:05;;;;;;;;;;;;;;;;;;5071801;28;1282;-73
2022/06/04 02:24:31;;;;;;;;;;;;;;;;;;5072010;28;913;-73
2022/06/04 02:26:57;;;;;;;;;;;;;;;;;;5071515;28;1075;-74
2022/06/04 02:29:23;;;;;;;;;;;;;;;;;;5070101;28;1416;-74
2022/06/04 02:31:52;;;;;;;;;;;;;;;;;;5071750;28;1079;-72
2022/06/04 02:34:19;;;;;;;;;;;;;;;;;;5069950;28;1304;-73
2022/06/04 02:36:47;;;;;;;;;;;;;;;;;;5071311;28;846;-73
2022/06/04 02:39:14;;;;;;;;;;;;;;;;;;5071266;28;1910;-73
2022/06/04 02:41:42;;;;;;;;;;;;;;;;;;5066404;28;1383;-73
2022/06/04 02:44:09;;;;;;;;;;;;;;;;;;5070413;28;1329;-73
2022/06/04 02:46:37;;;;;;;;;;;;;;;;;;5069498;28;1407;-73
2022/06/04 02:49:06;;;;;;;;;;;;;;;;;;5067086;28;849;-73
2022/06/04 02:51:33;;;;;;;;;;;;;;;;;;5051000;28;968;-73
2022/06/04 02:54:00;;;;;;;;;;;;;;;;;;5051145;28;1377;-74
2022/06/04 02:56:27;;;;;;;;;;;;;;;;;;5051868;28;2163;-73
2022/06/04 02:58:55;;;;;;;;;;;;;;;;;;5069709;28;1977;-72
2022/06/04 03:01:21;;;;;;;;;;;;;;;;;;5077662;28;1300;-72
2022/06/04 03:03:47;;;;;;;;;;;;;;;;;;5075099;28;1455;-72
2022/06/04 03:06:22;;;;;;;;;;;;;;;;;;5065719;28;713;-72
2022/06/04 03:08:48;;;;;;;;;;;;;;;;;;5050955;28;1083;-72
2022/06/04 03:11:14;;;;;;;;;;;;;;;;;;5066452;28;1300;-72
2022/06/04 03:13:40;;;;;;;;;;;;;;;;;;5072158;28;1436;-72
2022/06/04 03:16:08;;;;;;;;;;;;;;;;;;5066405;28;1559;-72
2022/06/04 03:18:34;;;;;;;;;;;;;;;;;;5070091;28;1918;-72
2022/06/04 03:21:00;;;;;;;;;;;;;;;;;;5070813;28;1211;-72
2022/06/04 03:23:28;;;;;;;;;;;;;;;;;;5068043;28;1782;-72
2022/06/04 03:25:54;;;;;;;;;;;;;;;;;;5067789;28;1615;-72
2022/06/04 03:28:20;;;;;;;;;;;;;;;;;;5063053;28;1468;-71
2022/06/04 03:30:46;;;;;;;;;;;;;;;;;;5067171;28;1150;-72
2022/06/04 03:33:12;;;;;;;;;;;;;;;;;;5070670;28;1359;-72
2022/06/04 03:35:39;;;;;;;;;;;;;;;;;;5078782;22;1998;-75
2022/06/04 03:38:05;;;;;;;;;;;;;;;;;;5066724;28;1918;-75
2022/06/04 03:40:33;;;;;;;;;;;;;;;;;;5062023;28;1247;-75
2022/06/04 03:42:59;;;;;;;;;;;;;;;;;;5058778;28;1572;-76
2022/06/04 03:45:26;;;;;;;;;;;;;;;;;;5062156;28;1338;-76
2022/06/04 03:47:53;;;;;;;;;;;;;;;;;;5070224;28;1122;-76
2022/06/04 03:50:19;;;;;;;;;;;;;;;;;;5064538;28;1783;-76
2022/06/04 03:52:46;;;;;;;;;;;;;;;;;;5052518;28;1615;-76
2022/06/04 03:55:12;;;;;;;;;;;;;;;;;;5067506;28;1344;-76
2022/06/04 03:57:42;;;;;;;;;;;;;;;;;;5060567;28;948;-76
2022/06/04 04:00:10;;;;;;;;;;;;;;;;;;5050099;28;1427;-75
2022/06/04 04:02:39;;;;;;;;;;;;;;;;;;5050509;28;704;-75
2022/06/04 04:05:06;;;;;;;;;;;;;;;;;;5053817;28;1329;-76
2022/06/04 04:07:32;;;;;;;;;;;;;;;;;;5052548;28;1206;-76
2022/06/04 04:09:58;;;;;;;;;;;;;;;;;;5061291;28;1918;-75
2022/06/04 04:12:24;;;;;;;;;;;;;;;;;;5054363;28;1512;-76
2022/06/04 04:14:52;;;;;;;;;;;;;;;;;;5052901;28;1870;-76
2022/06/04 04:17:18;;;;;;;;;;;;;;;;;;5064971;28;1243;-75
2022/06/04 04:19:44;;;;;;;;;;;;;;;;;;5065481;28;1407;-75
2022/06/04 04:22:10;;;;;;;;;;;;;;;;;;5052336;28;1163;-75
2022/06/04 04:24:36;;;;;;;;;;;;;;;;;;5053273;28;1357;-76
2022/06/04 04:27:03;;;;;;;;;;;;;;;;;;5052695;28;1885;-75
2022/06/04 04:29:29;;;;;;;;;;;;;;;;;;5059372;28;1918;-76
2022/06/04 04:31:57;;;;;;;;;;;;;;;;;;5053232;28;1494;-74
2022/06/04 04:34:23;;;;;;;;;;;;;;;;;;5061172;28;1591;-75
2022/06/04 04:36:49;;;;;;;;;;;;;;;;;;5069898;28;1341;-75
2022/06/04 04:39:15;;;;;;;;;;;;;;;;;;5073457;28;1056;-75
2022/06/04 04:41:41;;;;;;;;;;;;;;;;;;5073387;28;859;-77
2022/06/04 04:44:08;;;;;;;;;;;;;;;;;;5055784;28;1826;-76
2022/06/04 04:46:34;;;;;;;;;;;;;;;;;;5057135;28;1442;-76
2022/06/04 04:49:02;;;;;;;;;;;;;;;;;;5062271;28;1915;-76
2022/06/04 04:51:28;;;;;;;;;;;;;;;;;;5060243;28;1912;-76
2022/06/04 04:53:54;;;;;;;;;;;;;;;;;;5062524;28;1880;-75
2022/06/04 04:56:21;;;;;;;;;;;;;;;;;;5046846;28;1283;-75
2022/06/04 04:58:48;;;;;;;;;;;;;;;;;;5043023;28;1258;-76
2022/06/04 05:01:14;;;;;;;;;;;;;;;;;;5044728;28;1561;-76
2022/06/04 05:03:44;;;;;;;;;;;;;;;;;;5040756;28;1318;-76
2022/06/04 05:06:12;;;;;;;;;;;;;;;;;;5040580;28;1439;-76
2022/06/04 05:08:38;;;;;;;;;;;;;;;;;;5041671;28;1988;-76
2022/06/04 05:11:08;;;;;;;;;;;;;;;;;;5040621;28;1290;-77
2022/06/04 05:13:34;;;;;;;;;;;;;;;;;;5032889;28;1104;-74
2022/06/04 05:16:00;;;;;;;;;;;;;;;;;;5031684;28;1296;-78
2022/06/04 05:18:27;;;;;;;;;;;;;;;;;;5031321;28;1166;-77
2022/06/04 05:20:53;;;;;;;;;;;;;;;;;;5032881;28;1286;-77
2022/06/04 05:23:20;;;;;;;;;;;;;;;;;;5036475;28;1198;-78
2022/06/04 05:25:47;;;;;;;;;;;;;;;;;;5066838;28;1838;-76
2022/06/04 05:28:14;;;;;;;;;;;;;;;;;;5067336;28;1975;-76
2022/06/04 05:30:40;;;;;;;;;;;;;;;;;;5060789;28;1165;-76
2022/06/04 05:33:07;;;;;;;;;;;;;;;;;;5052499;28;1107;-75
2022/06/04 05:35:34;;;;;;;;;;;;;;;;;;5052375;28;1285;-76
2022/06/04 05:38:00;;;;;;;;;;;;;;;;;;5050683;28;1465;-76
2022/06/04 05:40:27;;;;;;;;;;;;;;;;;;5059607;28;1530;-76
2022/06/04 05:42:53;;;;;;;;;;;;;;;;;;5059879;28;1501;-76
2022/06/04 05:45:20;;;;;;;;;;;;;;;;;;5056409;28;1391;-76
2022/06/04 05:47:46;;;;;;;;;;;;;;;;;;5072296;28;885;-76
2022/06/04 05:50:12;;;;;;;;;;;;;;;;;;5053980;28;1918;-74
2022/06/04 05:52:38;;;;;;;;;;;;;;;;;;5049482;28;1432;-73
2022/06/04 05:55:05;;;;;;;;;;;;;;;;;;5055679;28;1454;-75
2022/06/04 05:57:32;;;;;;;;;;;;;;;;;;5056956;28;1099;-74
2022/06/04 05:59:58;;;;;;;;;;;;;;;;;;5054029;28;1406;-76
2022/06/04 06:02:25;;;;;;;;;;;;;;;;;;5058726;28;1390;-75
2022/06/04 06:04:51;;;;;;;;;;;;;;;;;;5065062;28;1483;-74
2022/06/04 06:07:17;;;;;;;;;;;;;;;;;;5054186;28;1532;-74
2022/06/04 06:09:44;;;;;;;;;;;;;;;;;;5052983;28;1967;-75
2022/06/04 06:12:11;;;;;;;;;;;;;;;;;;5059417;28;1354;-76
2022/06/04 06:14:38;;;;;;;;;;;;;;;;;;5063189;28;1489;-74
2022/06/04 06:17:05;;;;;;;;;;;;;;;;;;5057686;28;1401;-75
2022/06/04 06:19:31;;;;;;;;;;;;;;;;;;5061942;28;1280;-76
2022/06/04 06:21:57;;;;;;;;;;;;;;;;;;5070193;28;1279;-74
2022/06/04 06:24:23;;;;;;;;;;;;;;;;;;5071320;28;929;-75
2022/06/04 06:26:52;;;;;;;;;;;;;;;;;;5070581;28;1302;-76
2022/06/04 06:29:18;;;;;;;;;;;;;;;;;;5071113;28;1909;-75
2022/06/04 06:31:46;;;;;;;;;;;;;;;;;;5071539;28;1130;-74
2022/06/04 06:34:12;;;;;;;;;;;;;;;;;;5069920;28;1363;-75
2022/06/04 06:36:38;;;;;;;;;;;;;;;;;;5070989;28;1278;-74
2022/06/04 06:39:05;;;;;;;;;;;;;;;;;;5071013;28;1072;-73
2022/06/04 06:41:31;;;;;;;;;;;;;;;;;;5071160;28;1103;-74
2022/06/04 06:43:57;;;;;;;;;;;;;;;;;;5069852;28;1147;-74
2022/06/04 06:46:24;;;;;;;;;;;;;;;;;;5070757;28;1400;-74
2022/06/04 06:48:52;;;;;;;;;;;;;;;;;;5071067;28;1965;-74
2022/06/04 06:51:20;;;;;;;;;;;;;;;;;;5070964;28;1142;-75
2022/06/04 06:53:46;;;;;;;;;;;;;;;;;;5070771;28;1067;-74
2022/06/04 06:56:13;;;;;;;;;;;;;;;;;;5070738;28;1313;-74
2022/06/04 06:58:39;;;;;;;;;;;;;;;;;;5063765;28;1478;-75
2022/06/04 07:01:05;;;;;;;;;;;;;;;;;;5051292;28;1131;-75
2022/06/04 07:03:32;;;;;;;;;;;;;;;;;;5050831;28;1067;-75
2022/06/04 07:05:59;;;;;;;;;;;;;;;;;;5049554;28;1331;-75
2022/06/04 07:08:26;;;;;;;;;;;;;;;;;;5050703;28;1123;-75
2022/06/04 07:10:52;;;;;;;;;;;;;;;;;;5050633;28;1922;-75
2022/06/04 07:13:18;;;;;;;;;;;;;;;;;;5050533;28;1005;-75
2022/06/04 07:15:44;;;;;;;;;;;;;;;;;;5050767;28;1221;-76
2022/06/04 07:18:10;;;;;;;;;;;;;;;;;;5050189;28;965;-75
2022/06/04 07:20:37;;;;;;;;;;;;;;;;;;5049446;28;1254;-75
2022/06/04 07:23:05;;;;;;;;;;;;;;;;;;5049299;28;906;-73
2022/06/04 07:25:31;;;;;;;;;;;;;;;;;;5050653;28;1297;-75
2022/06/04 07:27:57;;;;;;;;;;;;;;;;;;5049027;28;1157;-75
2022/06/04 07:30:24;;;;;;;;;;;;;;;;;;5050428;28;1977;-74
2022/06/04 07:32:51;;;;;;;;;;;;;;;;;;5050439;28;1080;-75
2022/06/04 07:35:17;;;;;;;;;;;;;;;;;;5050100;28;1270;-75
2022/06/04 07:37:43;;;;;;;;;;;;;;;;;;5049015;28;1053;-74
2022/06/04 07:40:13;;;;;;;;;;;;;;;;;;5054570;28;1056;-75
2022/06/04 07:42:39;;;;;;;;;;;;;;;;;;5053457;28;1147;-75
2022/06/04 07:45:06;;;;;;;;;;;;;;;;;;5054479;28;1301;-75
2022/06/04 07:47:34;;;;;;;;;;;;;;;;;;5054560;28;976;-75
2022/06/04 07:50:00;;;;;;;;;;;;;;;;;;5053118;28;1914;-75
2022/06/04 07:52:26;;;;;;;;;;;;;;;;;;5054353;28;989;-75
2022/06/04 07:54:52;;;;;;;;;;;;;;;;;;5052941;28;1361;-75
2022/06/04 07:57:20;;;;;;;;;;;;;;;;;;5052314;28;1250;-75
2022/06/04 07:59:46;;;;;;;;;;;;;;;;;;5054220;28;1079;-74
2022/06/04 08:02:13;;;;;;;;;;;;;;;;;;5054004;28;950;-75
2022/06/04 08:04:39;;;;;;;;;;;;;;;;;;5054159;28;1056;-74
2022/06/04 08:07:06;;;;;;;;;;;;;;;;;;5053690;28;1324;-73
2022/06/04 08:09:32;;;;;;;;;;;;;;;;;;5053902;28;1918;-74
2022/06/04 08:11:58;;;;;;;;;;;;;;;;;;5054048;28;1102;-75
2022/06/04 08:14:26;;;;;;;;;;;;;;;;;;5052334;28;1155;-74
2022/06/04 08:16:55;;;;;;;;;;;;;;;;;;5052283;28;1371;-75
2022/06/04 08:19:22;;;;;;;;;;;;;;;;;;5052751;28;1068;-75
2022/06/04 08:21:49;;;;;;;;;;;;;;;;;;5052569;28;1228;-74
2022/06/04 08:24:15;;;;;;;;;;;;;;;;;;5053806;28;1119;-75
2022/06/04 08:26:43;;;;;;;;;;;;;;;;;;5052241;28;1373;-75
2022/06/04 08:29:09;;;;;;;;;;;;;;;;;;5053645;28;1108;-75
2022/06/04 08:31:36;;;;;;;;;;;;;;;;;;5053582;28;1301;-75
2022/06/04 08:34:03;;;;;;;;;;;;;;;;;;5052254;28;1151;-74
2022/06/04 08:36:29;;;;;;;;;;;;;;;;;;5053113;28;1277;-75
2022/06/04 08:38:55;;;;;;;;;;;;;;;;;;5053502;28;953;-75
2022/06/04 08:41:26;;;;;;;;;;;;;;;;;;5053482;28;787;-75
2022/06/04 08:43:54;;;;;;;;;;;;;;;;;;5052309;28;1100;-75
2022/06/04 08:46:21;;;;;;;;;;;;;;;;;;5053206;28;1242;-75
2022/06/04 08:48:48;;;;;;;;;;;;;;;;;;5053344;28;1075;-75
2022/06/04 08:51:24;;;;;;;;;;;;;;;;;;5053514;28;1914;-75
2022/06/04 08:53:52;;;;;;;;;;;;;;;;;;5052259;28;1244;-75
2022/06/04 08:59:06;;;;;;;;;;;;;;;;;;5062352;28;2076;-75
2022/06/04 09:01:35;;;;;;;;;;;;;;;;;;5065214;28;1128;-75
2022/06/04 09:04:05;;;;;;;;;;;;;;;;;;5073168;28;838;-75
2022/06/04 09:06:33;;;;;;;;;;;;;;;;;;5071761;28;1312;-75
2022/06/04 09:09:00;;;;;;;;;;;;;;;;;;5072854;28;1024;-76
2022/06/04 09:11:26;;;;;;;;;;;;;;;;;;5071712;28;1921;-75
2022/06/04 09:14:00;;;;;;;;;;;;;;;;;;5072666;28;1142;-75
2022/06/04 09:16:28;;;;;;;;;;;;;;;;;;5072683;28;1343;-73
2022/06/04 09:18:56;;;;;;;;;;;;;;;;;;5072940;28;1059;-74
2022/06/04 09:21:23;;;;;;;;;;;;;;;;;;5073051;28;1066;-74
2022/06/04 09:23:50;;;;;;;;;;;;;;;;;;5072697;28;1074;-75
2022/06/04 09:26:21;;;;;;;;;;;;;;;;;;5072636;28;1313;-75
2022/06/04 09:28:50;;;;;;;;;;;;;;;;;;5072798;28;1122;-74
2022/06/04 09:31:20;;;;;;;;;;;;;;;;;;5072671;28;1922;-74
2022/06/04 09:33:52;;;;;;;;;;;;;;;;;;5072654;28;977;-74
2022/06/04 09:36:19;;;;;;;;;;;;;;;;;;5072473;28;1312;-75
2022/06/04 09:38:53;;;;;;;;;;;;;;;;;;5072323;28;1122;-73
2022/06/04 09:41:21;;;;;;;;;;;;;;;;;;5072963;28;1051;-75
2022/06/04 09:43:47;;;;;;;;;;;;;;;;;;5072306;28;948;-75
2022/06/04 09:46:13;;;;;;;;;;;;;;;;;;5056134;28;2288;-75
2022/06/04 09:48:43;;;;;;;;;;;;;;;;;;5052336;28;1154;-74
2022/06/04 09:51:15;;;;;;;;;;;;;;;;;;5052309;28;1922;-75
2022/06/04 09:53:43;;;;;;;;;;;;;;;;;;5052160;28;1083;-75
2022/06/04 09:56:13;;;;;;;;;;;;;;;;;;5068243;22;3721;-73
2022/06/04 09:58:40;;;;;;;;;;;;;;;;;;5071504;28;1073;-75
2022/06/04 10:01:07;;;;;;;;;;;;;;;;;;5071406;28;854;-74
2022/06/04 10:03:34;;;;;;;;;;;;;;;;;;5070863;28;1158;-74
2022/06/04 10:06:02;;;;;;;;;;;;;;;;;;5071979;28;1307;-75
2022/06/04 10:08:29;;;;;;;;;;;;;;;;;;5071792;28;897;-75
2022/06/04 10:10:58;;;;;;;;;;;;;;;;;;5071306;28;1918;-74
2022/06/04 10:13:45;;;;;;;;;;;;;;;;;;5070448;28;1079;-74
2022/06/04 10:16:15;;;;;;;;;;;;;;;;;;5070941;28;1413;-74
2022/06/04 10:18:42;;;;;;;;;;;;;;;;;;5071671;28;1410;-74
2022/06/04 10:21:19;;;;;;;;;;;;;;;;;;5052986;28;1559;-75
2022/06/04 10:23:46;;;;;;;;;;;;;;;;;;5051597;28;953;-74
2022/06/04 10:26:22;;;;;;;;;;;;;;;;;;5051298;28;1328;-74
2022/06/04 10:28:56;;;;;;;;;;;;;;;;;;5052287;28;1079;-74
2022/06/04 10:31:25;;;;;;;;;;;;;;;;;;5066792;28;1918;-75
2022/06/04 10:33:52;;;;;;;;;;;;;;;;;;5051493;28;760;-75
2022/06/04 10:36:25;;;;;;;;;;;;;;;;;;5071424;28;1987;-74
2022/06/04 10:38:55;;;;;;;;;;;;;;;;;;5068191;28;1141;-74
2022/06/04 10:41:26;;;;;;;;;;;;;;;;;;5070216;28;1063;-74
2022/06/04 10:44:04;;;;;;;;;;;;;;;;;;5071123;28;782;-74
2022/06/04 10:46:31;;;;;;;;;;;;;;;;;;5070785;28;1388;-74
2022/06/04 10:49:02;;;;;;;;;;;;;;;;;;5071018;28;794;-75
2022/06/04 10:51:37;;;;;;;;;;;;;;;;;;5070884;28;1926;-76
2022/06/04 10:54:05;;;;;;;;;;;;;;;;;;5068225;28;1474;-75
2022/06/04 10:56:33;;;;;;;;;;;;;;;;;;5050589;28;1465;-75
2022/06/04 10:59:02;;;;;;;;;;;;;;;;;;5050020;28;1416;-75
2022/06/04 11:01:31;;;;;;;;;;;;;;;;;;5050901;28;1056;-75
2022/06/04 11:04:01;;;;;;;;;;;;;;;;;;5050914;28;1083;-75
2022/06/04 11:06:27;;;;;;;;;;;;;;;;;;5050400;28;1393;-75
2022/06/04 11:08:54;;;;;;;;;;;;;;;;;;5050882;28;1063;-74
2022/06/04 11:11:21;;;;;;;;;;;;;;;;;;5050611;28;1910;-75
2022/06/04 11:13:48;;;;;;;;;;;;;;;;;;5049352;28;1253;-75
2022/06/04 11:16:15;;;;;;;;;;;;;;;;;;5050409;28;1316;-75
2022/06/04 11:18:44;;;;;;;;;;;;;;;;;;5050734;28;1127;-73
2022/06/04 11:21:12;;;;;;;;;;;;;;;;;;5050687;28;1072;-76
2022/06/04 11:23:39;;;;;;;;;;;;;;;;;;5050642;28;1196;-76
2022/06/04 11:26:07;;;;;;;;;;;;;;;;;;5050374;28;1319;-74
2022/06/04 11:28:33;;;;;;;;;;;;;;;;;;5050759;28;1178;-76
2022/06/04 11:31:06;;;;;;;;;;;;;;;;;;5050471;28;1910;-76
2022/06/04 11:33:36;;;;;;;;;;;;;;;;;;5050555;28;937;-75
2022/06/04 11:36:04;;;;;;;;;;;;;;;;;;5050483;28;1321;-75
2022/06/04 11:38:38;;;;;;;;;;;;;;;;;;5050592;28;889;-75
2022/06/04 11:41:08;;;;;;;;;;;;;;;;;;5050411;28;1029;-75
2022/06/04 11:43:38;;;;;;;;;;;;;;;;;;5050452;28;1644;-74
2022/06/04 11:46:07;;;;;;;;;;;;;;;;;;5050200;28;1336;-74
2022/06/04 11:48:40;;;;;;;;;;;;;;;;;;5050428;28;1008;-75
2022/06/04 11:51:12;;;;;;;;;;;;;;;;;;5048927;28;1988;-75
2022/06/04 11:53:40;;;;;;;;;;;;;;;;;;5050398;28;1104;-73
2022/06/04 11:56:07;;;;;;;;;;;;;;;;;;5049529;28;1251;-74
2022/06/04 11:58:36;;;;;;;;;;;;;;;;;;5051480;28;1359;-74
2022/06/04 12:01:03;;;;;;;;;;;;;;;;;;5063840;28;1519;-75
2022/06/04 12:03:31;;;;;;;;;;;;;;;;;;5069221;28;1123;-75
2022/06/04 12:05:59;;;;;;;;;;;;;;;;;;5069113;28;1475;-75
2022/06/04 12:08:28;;;;;;;;;;;;;;;;;;5067598;28;1290;-74
2022/06/04 12:10:56;;;;;;;;;;;;;;;;;;5067892;28;1918;-74
2022/06/04 12:13:24;;;;;;;;;;;;;;;;;;5067941;28;2104;-75
2022/06/04 12:15:51;;;;;;;;;;;;;;;;;;5069392;28;1314;-75
2022/06/04 12:18:22;;;;;;;;;;;;;;;;;;5061326;28;1402;-75
2022/06/04 12:26:24;;;;;;;;;;;;;;;;;;5060158;28;1338;-75
2022/06/04 12:28:50;;;;;;;;;;;;;;;;;;5072310;28;1251;-75
2022/06/04 12:31:27;;;;;;;;;;;;;;;;;;5057133;28;1918;-75
2022/06/04 12:33:54;;;;;;;;;;;;;;;;;;5086978;28;1404;-75
2022/06/04 12:36:23;;;;;;;;;;;;;;;;;;5072792;28;1432;-75
2022/06/04 12:38:58;;;;;;;;;;;;;;;;;;5070623;28;1428;-76
2022/06/04 12:41:24;;;;;;;;;;;;;;;;;;5072581;28;1036;-75
2022/06/04 12:43:57;;;;;;;;;;;;;;;;;;5072954;28;1083;-75
2022/06/04 12:46:30;;;;;;;;;;;;;;;;;;5071969;28;1303;-76
2022/06/04 12:48:58;;;;;;;;;;;;;;;;;;5060054;28;1526;-76
2022/06/04 12:51:35;;;;;;;;;;;;;;;;;;5052138;28;1973;-76
2022/06/04 12:54:05;;;;;;;;;;;;;;;;;;5052257;28;775;-76
2022/06/04 12:56:32;;;;;;;;;;;;;;;;;;5016672;28;991092;-75
2022/06/04 12:58:59;;;;;;;;;;;;;;;;;;5051987;28;942;-75
2022/06/04 13:01:27;;;;;;;;;;;;;;;;;;5053332;28;1003;-75
2022/06/04 13:04:04;;;;;;;;;;;;;;;;;;5053135;28;1821;-75
2022/06/04 13:06:34;;;;;;;;;;;;;;;;;;5052869;28;1239;-75
2022/06/04 13:09:04;;;;;;;;;;;;;;;;;;5052036;28;1243;-75
2022/06/04 13:11:39;;;;;;;;;;;;;;;;;;5053197;28;1922;-75
2022/06/04 13:14:08;;;;;;;;;;;;;;;;;;5053109;28;1051;-76
2022/06/04 13:16:34;;;;;;;;;;;;;;;;;;5052905;28;1305;-75
2022/06/04 13:19:04;;;;;;;;;;;;;;;;;;5053236;28;1095;-75
2022/06/04 13:21:31;;;;;;;;;;;;;;;;;;5053009;28;1098;-75
2022/06/04 13:23:59;;;;;;;;;;;;;;;;;;5052710;28;1324;-75
2022/06/04 13:26:30;;;;;;;;;;;;;;;;;;5052363;28;1282;-76
2022/06/04 13:28:56;;;;;;;;;;;;;;;;;;5052616;28;1033;-76
2022/06/04 13:31:24;;;;;;;;;;;;;;;;;;5052535;28;1981;-76
2022/06/04 13:33:51;;;;;;;;;;;;;;;;;;5051419;28;1289;-76
2022/06/04 13:36:18;;;;;;;;;;;;;;;;;;5051673;28;1279;-76
2022/06/04 13:38:45;;;;;;;;;;;;;;;;;;5052599;28;937;-77
2022/06/04 13:41:15;;;;;;;;;;;;;;;;;;5052483;28;834;-76
2022/06/04 13:43:44;;;;;;;;;;;;;;;;;;5052664;28;969;-77
2022/06/04 13:46:15;;;;;;;;;;;;;;;;;;5052325;28;1291;-75
2022/06/04 13:48:49;;;;;;;;;;;;;;;;;;5052686;28;1104;-76
2022/06/04 13:51:18;;;;;;;;;;;;;;;;;;5052291;28;1915;-77
2022/06/04 13:53:46;;;;;;;;;;;;;;;;;;5052379;28;1121;-77
2022/06/04 13:56:12;;;;;;;;;;;;;;;;;;5050421;28;1448;-76
2022/06/04 13:58:40;;;;;;;;;;;;;;;;;;5052180;28;1028;-76
2022/06/04 14:01:08;;;;;;;;;;;;;;;;;;5065756;28;2140;-77
2022/06/04 14:03:35;;;;;;;;;;;;;;;;;;5071987;28;1057;-76
2022/06/04 14:06:00;;;;;;;;;;;;;;;;;;5070584;28;1274;-77
2022/06/04 14:08:27;;;;;;;;;;;;;;;;;;5071732;28;861;-77
2022/06/04 14:11:05;;;;;;;;;;;;;;;;;;5071979;28;790;-77
2022/06/04 14:13:38;;;;;;;;;;;;;;;;;;5071687;28;1454;-77
2022/06/04 14:16:10;;;;;;;;;;;;;;;;;;5071570;28;1258;-77
2022/06/04 14:18:53;;;;;;;;;;;;;;;;;;5071829;28;1114;-77
2022/06/04 14:21:22;;;;;;;;;;;;;;;;;;5071925;28;1973;-77
2022/06/04 14:23:51;;;;;;;;;;;;;;;;;;5071608;28;1063;-77
2022/06/04 14:26:20;;;;;;;;;;;;;;;;;;5071077;28;1298;-77
2022/06/04 14:28:49;;;;;;;;;;;;;;;;;;5071393;28;1107;-77
2022/06/04 14:31:18;;;;;;;;;;;;;;;;;;5070325;28;1041;-77
2022/06/04 14:33:44;;;;;;;;;;;;;;;;;;5070331;28;1170;-77
2022/06/04 14:36:17;;;;;;;;;;;;;;;;;;5071269;28;1302;-77
2022/06/04 14:38:43;;;;;;;;;;;;;;;;;;5071617;28;1139;-77
2022/06/04 14:41:12;;;;;;;;;;;;;;;;;;5071096;28;1975;-77
2022/06/04 14:43:46;;;;;;;;;;;;;;;;;;5071000;28;1542;-77
2022/06/04 14:46:18;;;;;;;;;;;;;;;;;;5070303;28;1570;-77
2022/06/04 14:48:54;;;;;;;;;;;;;;;;;;5071042;28;1067;-77
2022/06/04 14:51:25;;;;;;;;;;;;;;;;;;5071071;28;837;-77
2022/06/04 14:53:52;;;;;;;;;;;;;;;;;;5070986;28;975;-77
2022/06/04 14:56:23;;;;;;;;;;;;;;;;;;5072289;28;1328;-77
2022/06/04 14:58:55;;;;;;;;;;;;;;;;;;5072969;28;2101;-77
2022/06/04 15:01:26;;;;;;;;;;;;;;;;;;5082912;28;1910;-77
2022/06/04 15:03:57;;;;;;;;;;;;;;;;;;5089454;28;1189;-77
2022/06/04 15:06:23;;;;;;;;;;;;;;;;;;5095514;28;1407;-78
2022/06/04 15:08:55;;;;;;;;;;;;;;;;;;5095732;28;1360;-77
2022/06/04 15:11:40;;;;;;;;;;;;;;;;;;5093364;28;885;-77
2022/06/04 15:14:09;;;;;;;;;;;;;;;;;;5093810;28;1118;-77
2022/06/04 15:16:39;;;;;;;;;;;;;;;;;;5091361;28;1261;-77
2022/06/04 15:19:18;;;;;;;;;;;;;;;;;;5093571;28;949;-77
2022/06/04 15:21:47;;;;;;;;;;;;;;;;;;5092953;28;1914;-76
2022/06/04 15:24:28;;;;;;;;;;;;;;;;;;5092763;28;1071;-77
2022/06/04 15:26:55;;;;;;;;;;;;;;;;;;5091096;28;1281;-77
2022/06/04 15:35:07;;;;;;;;;;;;;;;;;;5088704;28;1386;-77
2022/06/04 15:37:37;;;;;;;;;;;;;;;;;;5091274;28;1293;-77
2022/06/04 15:40:06;;;;;;;;;;;;;;;;;;5092782;28;850;-78
2022/06/04 15:42:51;;;;;;;;;;;;;;;;;;5093509;28;1882;-77
2022/06/04 15:45:19;;;;;;;;;;;;;;;;;;5093683;28;1381;-77
2022/06/04 15:47:47;;;;;;;;;;;;;;;;;;5093710;28;804;-77
2022/06/04 15:55:55;;;;;;;;;;;;;;;;;;5096491;28;1403;-77
2022/06/04 15:58:26;;;;;;;;;;;;;;;;;;5091892;28;1194;-77
2022/06/04 16:00:53;;;;;;;;;;;;;;;;;;5095342;28;1689;-77
2022/06/04 16:03:26;;;;;;;;;;;;;;;;;;5096048;28;1973;-77
2022/06/04 16:05:55;;;;;;;;;;;;;;;;;;5096677;28;1300;-77
2022/06/04 16:08:22;;;;;;;;;;;;;;;;;;5096512;28;1063;-77
2022/06/04 16:11:06;;;;;;;;;;;;;;;;;;5096901;28;1060;-77
2022/06/04 16:13:42;;;;;;;;;;;;;;;;;;5095498;28;1071;-77
2022/06/04 16:16:21;;;;;;;;;;;;;;;;;;5096227;28;1277;-77
2022/06/04 16:18:52;;;;;;;;;;;;;;;;;;5097097;28;1036;-78
2022/06/04 16:21:20;;;;;;;;;;;;;;;;;;5096451;28;1143;-77
2022/06/04 16:23:48;;;;;;;;;;;;;;;;;;5097261;28;1985;-77
2022/06/04 16:26:18;;;;;;;;;;;;;;;;;;5096431;28;1290;-77
2022/06/04 16:28:50;;;;;;;;;;;;;;;;;;5098354;28;1123;-78
2022/06/04 16:31:24;;;;;;;;;;;;;;;;;;5097283;28;696;-78
2022/06/04 16:33:53;;;;;;;;;;;;;;;;;;5096332;28;1048;-77
2022/06/04 16:36:19;;;;;;;;;;;;;;;;;;5076802;28;1450;-77
2022/06/04 16:38:50;;;;;;;;;;;;;;;;;;5056235;28;1000;-77
2022/06/04 16:44:03;;;;;;;;;;;;;;;;;;5056274;28;1987;-78
2022/06/04 16:46:35;;;;;;;;;;;;;;;;;;5054755;28;1316;-75
2022/06/04 16:51:54;;;;;;;;;;;;;;;;;;5056202;28;979;-77
2022/06/04 16:54:21;;;;;;;;;;;;;;;;;;5056970;28;1014;-77
2022/06/04 16:56:47;;;;;;;;;;;;;;;;;;5056876;28;1299;-77
2022/06/04 16:59:15;;;;;;;;;;;;;;;;;;5058189;28;826;-77
2022/06/04 17:01:41;;;;;;;;;;;;;;;;;;5056510;28;1131;-77
2022/06/04 17:04:10;;;;;;;;;;;;;;;;;;5056085;28;1917;-77
2022/06/04 17:06:39;;;;;;;;;;;;;;;;;;5055743;28;1283;-77
2022/06/04 17:09:15;;;;;;;;;;;;;;;;;;5055977;28;1083;-77
2022/06/04 17:11:52;;;;;;;;;;;;;;;;;;5055608;28;857;-78
2022/06/04 17:14:21;;;;;;;;;;;;;;;;;;5054680;28;1138;-77
2022/06/04 17:16:56;;;;;;;;;;;;;;;;;;5055393;28;1290;-77
2022/06/04 17:19:32;;;;;;;;;;;;;;;;;;5056578;28;694;-77
2022/06/04 17:22:01;;;;;;;;;;;;;;;;;;5055987;28;1973;-77
2022/06/04 17:24:31;;;;;;;;;;;;;;;;;;5055783;28;1128;-77
2022/06/04 17:27:01;;;;;;;;;;;;;;;;;;5053567;28;1371;-77
2022/06/04 17:29:32;;;;;;;;;;;;;;;;;;5054075;28;1115;-76
2022/06/04 17:31:59;;;;;;;;;;;;;;;;;;5053130;28;1005;-77
2022/06/04 17:34:29;;;;;;;;;;;;;;;;;;5054584;28;1060;-77
2022/06/04 17:37:00;;;;;;;;;;;;;;;;;;5054343;28;1305;-76
2022/06/04 17:39:30;;;;;;;;;;;;;;;;;;5055063;28;873;-77
2022/06/04 17:41:56;;;;;;;;;;;;;;;;;;5053134;28;960;-74
2022/06/04 17:44:23;;;;;;;;;;;;;;;;;;5052578;28;1927;-76
2022/06/04 17:46:49;;;;;;;;;;;;;;;;;;5050799;28;1461;-76
2022/06/04 17:49:15;;;;;;;;;;;;;;;;;;5052403;28;929;-76
2022/06/04 17:51:42;;;;;;;;;;;;;;;;;;5050933;28;1170;-76